createdAt,value
2022-12-18T00:00:07.854Z,77.13
2022-12-18T00:02:35.924Z,92.28
2022-12-18T00:05:05.707Z,86.72
2022-12-18T00:07:33.692Z,118.90
2022-12-18T00:10:01.600Z,96.95
2022-12-18T00:12:30.150Z,124.13
2022-12-18T00:14:58.407Z,76.43
2022-12-18T00:17:26.392Z,106.43
2022-12-18T00:19:54.358Z,118.30
2022-12-18T00:22:23.737Z,77.40
2022-12-18T00:24:51.754Z,90.30
2022-12-18T00:27:19.767Z,94.68
2022-12-18T00:29:47.752Z,82.97
2022-12-18T00:32:15.735Z,94.88
2022-12-18T00:34:43.711Z,99.82
2022-12-18T00:37:15.568Z,79.53
2022-12-18T00:39:47.670Z,80.32
2022-12-18T00:42:32.868Z,76.75
2022-12-18T00:45:00.856Z,81.55
2022-12-18T00:47:28.812Z,95.75
2022-12-18T00:49:56.782Z,89.38
2022-12-18T00:52:24.836Z,86.18
2022-12-18T00:54:54.194Z,83.00
2022-12-18T00:57:22.200Z,78.65
2022-12-18T00:59:50.382Z,80.57
2022-12-18T01:02:18.665Z,93.55
2022-12-18T01:04:46.863Z,83.53
2022-12-18T01:07:14.826Z,93.15
2022-12-18T01:09:42.773Z,89.60
2022-12-18T01:12:12.208Z,90.22
2022-12-18T01:14:40.220Z,86.63
2022-12-18T01:17:08.214Z,72.30
2022-12-18T01:19:36.354Z,82.53
2022-12-18T01:22:04.381Z,85.38
2022-12-18T01:24:32.345Z,93.72
2022-12-18T01:27:00.333Z,97.18
2022-12-18T01:29:29.878Z,97.50
2022-12-18T01:31:58.532Z,97.07
2022-12-18T01:34:26.630Z,80.03
2022-12-18T01:36:54.592Z,91.65
2022-12-18T01:39:22.628Z,87.18
2022-12-18T01:42:06.206Z,92.20
2022-12-18T01:45:23.647Z,93.03
2022-12-18T01:47:54.154Z,95.13
2022-12-18T01:50:25.573Z,94.07
2022-12-18T01:52:56.081Z,80.72
2022-12-18T01:55:27.160Z,87.25
2022-12-18T01:57:57.456Z,98.03
2022-12-18T02:00:28.400Z,82.30
2022-12-18T02:02:56.798Z,81.30
2022-12-18T02:05:32.925Z,84.75
2022-12-18T02:08:10.576Z,98.07
2022-12-18T02:10:48.014Z,88.88
2022-12-18T02:13:21.895Z,110.07
2022-12-18T02:16:02.894Z,125.05
2022-12-18T02:18:34.563Z,91.18
2022-12-18T02:21:13.713Z,87.10
2022-12-18T02:23:55.354Z,104.03
2022-12-18T02:26:29.523Z,91.72
2022-12-18T02:29:04.416Z,146.27
2022-12-18T02:31:52.009Z,121.03
2022-12-18T02:34:21.863Z,89.13
2022-12-18T02:36:52.184Z,95.05
2022-12-18T02:39:23.795Z,103.43
2022-12-18T02:41:54.005Z,163.13
2022-12-18T02:44:21.977Z,96.80
2022-12-18T02:46:53.794Z,137.75
2022-12-18T02:49:33.705Z,104.40
2022-12-18T02:52:09.872Z,112.28
2022-12-18T02:54:57.349Z,98.18
2022-12-18T02:57:36.082Z,108.03
2022-12-18T03:00:08.740Z,92.80
2022-12-18T03:02:42.577Z,106.88
2022-12-18T03:05:16.215Z,115.68
2022-12-18T03:07:49.191Z,104.28
2022-12-18T03:10:23.925Z,121.05
2022-12-18T03:12:56.785Z,107.15
2022-12-18T03:15:28.964Z,105.93
2022-12-18T03:18:01.829Z,92.63
2022-12-18T03:20:33.671Z,128.07
2022-12-18T03:23:08.441Z,92.47
2022-12-18T03:25:40.925Z,91.43
2022-12-18T03:28:14.081Z,92.45
2022-12-18T03:30:46.198Z,110.97
2022-12-18T03:33:20.766Z,91.80
2022-12-18T03:35:49.050Z,109.32
2022-12-18T03:38:17.168Z,90.57
2022-12-18T03:40:58.221Z,89.63
2022-12-18T03:43:38.900Z,74.03
2022-12-18T03:46:12.010Z,89.00
2022-12-18T03:48:45.913Z,86.60
2022-12-18T03:51:20.980Z,102.05
2022-12-18T03:53:54.515Z,91.20
2022-12-18T03:56:24.733Z,85.03
2022-12-18T03:58:56.453Z,80.65
2022-12-18T04:01:33.257Z,85.85
2022-12-18T04:04:03.154Z,86.47
2022-12-18T04:06:32.599Z,85.32
2022-12-18T04:09:01.146Z,75.13
2022-12-18T04:11:29.210Z,76.28
2022-12-18T04:14:02.667Z,77.90
2022-12-18T04:16:32.625Z,74.82
2022-12-18T04:19:00.673Z,71.78
2022-12-18T04:21:28.610Z,76.45
2022-12-18T04:23:56.632Z,77.28
2022-12-18T04:26:24.750Z,74.38
2022-12-18T04:28:52.789Z,82.93
2022-12-18T04:31:22.289Z,78.50
2022-12-18T04:33:50.296Z,73.80
2022-12-18T04:36:18.364Z,77.97
2022-12-18T04:38:46.299Z,84.15
2022-12-18T04:41:15.789Z,75.57
2022-12-18T04:43:44.943Z,75.10
2022-12-18T04:46:12.926Z,88.15
2022-12-18T04:48:42.460Z,74.03
2022-12-18T04:51:10.421Z,74.20
2022-12-18T04:53:38.703Z,80.00
2022-12-18T04:56:08.393Z,83.90
2022-12-18T04:58:36.423Z,72.85
2022-12-18T05:01:04.858Z,69.45
2022-12-18T05:03:33.030Z,77.60
2022-12-18T05:06:02.809Z,59.88
2022-12-18T05:08:30.754Z,89.45
2022-12-18T05:11:02.201Z,64.82
2022-12-18T05:13:30.494Z,70.00
2022-12-18T05:15:58.663Z,63.80
2022-12-18T05:18:27.419Z,66.82
2022-12-18T05:20:56.482Z,59.90
2022-12-18T05:23:26.898Z,64.43
2022-12-18T05:25:55.290Z,69.28
2022-12-18T05:28:24.916Z,77.18
2022-12-18T05:30:54.515Z,73.95
2022-12-18T05:33:24.446Z,70.75
2022-12-18T05:35:53.648Z,72.30
2022-12-18T05:38:22.474Z,88.18
2022-12-18T05:40:52.996Z,71.68
2022-12-18T05:43:22.754Z,63.05
2022-12-18T05:45:52.240Z,71.80
2022-12-18T05:48:22.721Z,72.22
2022-12-18T05:50:54.053Z,79.78
2022-12-18T05:53:23.929Z,71.22
2022-12-18T05:55:54.271Z,75.18
2022-12-18T05:58:23.173Z,71.85
2022-12-18T06:00:52.503Z,85.80
2022-12-18T06:03:21.454Z,68.65
2022-12-18T06:05:50.436Z,72.75
2022-12-18T06:08:18.413Z,77.93
2022-12-18T06:10:54.514Z,78.13
2022-12-18T06:13:22.680Z,78.38
2022-12-18T06:15:50.688Z,81.07
2022-12-18T06:18:19.305Z,72.18
2022-12-18T06:20:47.405Z,75.22
2022-12-18T06:23:15.350Z,76.28
2022-12-18T06:25:43.436Z,70.82
2022-12-18T06:28:12.803Z,87.13
2022-12-18T06:30:54.441Z,81.65
2022-12-18T06:33:22.435Z,81.10
2022-12-18T06:35:50.379Z,67.18
2022-12-18T06:38:18.321Z,74.78
2022-12-18T06:40:46.230Z,73.93
2022-12-18T06:43:15.565Z,66.88
2022-12-18T06:45:43.651Z,66.43
2022-12-18T06:48:11.718Z,68.68
2022-12-18T06:50:39.608Z,56.08
2022-12-18T06:53:07.557Z,63.00
2022-12-18T06:55:36.359Z,71.55
2022-12-18T06:58:04.626Z,56.22
2022-12-18T07:00:34.014Z,68.70
2022-12-18T07:03:02.767Z,55.38
2022-12-18T07:05:34.994Z,65.22
2022-12-18T07:08:03.945Z,74.38
2022-12-18T07:10:36.440Z,82.40
2022-12-18T07:13:05.305Z,70.10
2022-12-18T07:15:35.328Z,68.28
2022-12-18T07:18:04.134Z,84.97
2022-12-18T07:20:33.685Z,169.85
2022-12-18T07:23:04.317Z,90.97
2022-12-18T07:25:32.266Z,81.63
2022-12-18T07:28:00.198Z,155.13
2022-12-18T07:30:28.177Z,87.90
2022-12-18T07:32:57.485Z,88.28
2022-12-18T07:35:25.664Z,73.38
2022-12-18T07:37:53.688Z,74.68
2022-12-18T07:40:21.621Z,74.90
2022-12-18T07:42:49.559Z,113.10
2022-12-18T07:45:17.640Z,95.32
2022-12-18T07:47:45.562Z,76.82
2022-12-18T07:50:15.311Z,73.53
2022-12-18T07:52:43.270Z,85.22
2022-12-18T07:55:11.258Z,76.45
2022-12-18T07:57:50.701Z,77.00
2022-12-18T08:00:19.738Z,72.95
2022-12-18T08:02:49.506Z,67.43
2022-12-18T08:05:19.373Z,70.75
2022-12-18T08:07:47.451Z,69.78
2022-12-18T08:10:15.824Z,65.25
2022-12-18T08:12:43.863Z,58.83
2022-12-18T08:15:12.300Z,67.95
2022-12-18T08:17:40.307Z,63.47
2022-12-18T08:20:09.336Z,59.38
2022-12-18T08:22:38.690Z,56.92
2022-12-18T08:25:07.644Z,62.10
2022-12-18T08:27:35.688Z,68.35
2022-12-18T08:30:04.060Z,65.68
2022-12-18T08:32:33.879Z,59.70
2022-12-18T08:35:01.867Z,71.45
2022-12-18T08:37:29.914Z,71.22
2022-12-18T08:39:59.241Z,71.40
2022-12-18T08:42:44.816Z,77.00
2022-12-18T08:45:13.008Z,61.67
2022-12-18T08:47:40.947Z,71.15
2022-12-18T08:50:09.503Z,61.65
2022-12-18T08:52:37.497Z,47.63
2022-12-18T08:55:09.372Z,56.25
2022-12-18T08:57:37.377Z,60.33
2022-12-18T09:00:06.368Z,70.80
2022-12-18T09:02:34.794Z,99.30
2022-12-18T09:05:02.821Z,58.85
2022-12-18T09:07:30.808Z,60.13
2022-12-18T09:09:58.746Z,49.63
2022-12-18T09:12:28.122Z,55.35
2022-12-18T09:14:57.327Z,52.47
2022-12-18T09:17:25.362Z,75.75
2022-12-18T09:19:54.073Z,135.27
2022-12-18T09:22:22.080Z,78.70
2022-12-18T09:24:52.151Z,49.97
2022-12-18T09:27:20.794Z,51.50
2022-12-18T09:29:50.549Z,62.42
2022-12-18T09:32:22.357Z,58.03
2022-12-18T09:34:50.707Z,55.53
2022-12-18T09:37:20.006Z,70.03
2022-12-18T09:39:49.490Z,51.38
2022-12-18T09:42:22.574Z,55.90
2022-12-18T09:44:55.755Z,57.13
2022-12-18T09:47:27.329Z,55.40
2022-12-18T09:49:58.979Z,70.60
2022-12-18T09:52:30.919Z,66.97
2022-12-18T09:55:04.287Z,56.55
2022-12-18T09:57:38.947Z,56.40
2022-12-18T10:00:19.084Z,55.78
2022-12-18T10:02:48.822Z,51.83
2022-12-18T10:05:20.537Z,60.42
2022-12-18T10:07:57.928Z,48.25
2022-12-18T10:10:35.364Z,42.08
2022-12-18T10:13:15.249Z,51.92
2022-12-18T10:15:57.129Z,39.50
2022-12-18T10:18:39.992Z,42.08
2022-12-18T10:21:14.757Z,45.90
2022-12-18T10:23:51.845Z,32.65
2022-12-18T10:26:20.006Z,46.45
2022-12-18T10:28:49.908Z,42.50
2022-12-18T10:31:24.501Z,43.72
2022-12-18T10:33:53.347Z,38.83
2022-12-18T10:36:22.353Z,37.47
2022-12-18T10:38:52.122Z,43.28
2022-12-18T10:41:29.352Z,38.38
2022-12-18T10:44:17.071Z,35.40
2022-12-18T10:46:47.646Z,36.05
2022-12-18T10:49:25.470Z,37.03
2022-12-18T10:52:06.303Z,33.95
2022-12-18T10:54:37.126Z,40.80
2022-12-18T10:57:19.255Z,42.20
2022-12-18T10:59:55.748Z,35.42
2022-12-18T11:02:35.464Z,35.58
2022-12-18T11:05:06.332Z,39.00
2022-12-18T11:07:52.652Z,46.15
2022-12-18T11:10:22.134Z,39.88
2022-12-18T11:12:50.638Z,43.97
2022-12-18T11:15:22.845Z,46.80
2022-12-18T11:17:54.046Z,48.75
2022-12-18T11:20:29.859Z,46.22
2022-12-18T11:22:59.741Z,44.25
2022-12-18T11:25:32.296Z,43.30
2022-12-18T11:28:03.734Z,50.03
2022-12-18T11:30:33.310Z,44.05
2022-12-18T11:33:07.348Z,54.55
2022-12-18T11:35:42.479Z,59.78
2022-12-18T11:38:20.906Z,55.67
2022-12-18T11:40:55.388Z,42.38
2022-12-18T11:43:29.262Z,49.75
2022-12-18T11:46:04.783Z,52.58
2022-12-18T11:48:39.401Z,44.13
2022-12-18T11:51:14.875Z,48.33
2022-12-18T11:53:42.855Z,61.00
2022-12-18T11:56:29.827Z,54.50
2022-12-18T11:59:10.662Z,60.60
2022-12-18T12:01:48.604Z,54.42
2022-12-18T12:04:38.297Z,53.38
2022-12-18T12:07:20.813Z,57.00
2022-12-18T12:09:57.727Z,61.90
2022-12-18T12:12:48.894Z,56.63
2022-12-18T12:15:29.538Z,52.40
2022-12-18T12:18:11.094Z,57.08
2022-12-18T12:20:49.813Z,54.22
2022-12-18T12:23:39.543Z,65.32
2022-12-18T12:26:11.816Z,51.08
2022-12-18T12:28:59.519Z,60.67
2022-12-18T12:31:44.456Z,56.33
2022-12-18T12:34:20.040Z,72.30
2022-12-18T12:37:03.478Z,68.63
2022-12-18T12:39:34.138Z,67.05
2022-12-18T12:42:21.107Z,60.63
2022-12-18T12:44:56.421Z,60.00
2022-12-18T12:47:29.855Z,64.40
2022-12-18T12:50:00.833Z,69.63
2022-12-18T12:52:37.080Z,63.38
2022-12-18T12:55:14.577Z,68.47
2022-12-18T12:57:48.103Z,68.00
2022-12-18T13:00:18.790Z,74.43
2022-12-18T13:02:53.503Z,56.97
2022-12-18T13:05:28.262Z,77.95
2022-12-18T13:08:04.512Z,68.38
2022-12-18T13:10:37.112Z,61.38
2022-12-18T13:13:09.000Z,58.22
2022-12-18T13:15:41.955Z,63.45
2022-12-18T13:18:19.709Z,59.50
2022-12-18T13:20:55.161Z,57.70
2022-12-18T13:23:37.434Z,63.78
2022-12-18T13:26:34.154Z,62.70
2022-12-18T13:29:05.323Z,55.53
2022-12-18T13:32:10.272Z,59.13
2022-12-18T13:34:38.824Z,49.08
2022-12-18T13:37:55.896Z,55.20
2022-12-18T13:40:58.971Z,49.33
2022-12-18T13:43:38.608Z,52.35
2022-12-18T13:46:19.162Z,56.10
2022-12-18T13:48:54.253Z,50.67
2022-12-18T13:51:23.290Z,51.47
2022-12-18T13:53:54.277Z,50.85
2022-12-18T13:56:25.443Z,55.03
2022-12-18T13:59:24.909Z,52.53
2022-12-18T14:01:56.337Z,57.25
2022-12-18T14:04:28.417Z,71.32
2022-12-18T14:07:01.089Z,54.80
2022-12-18T14:09:32.751Z,58.17
2022-12-18T14:12:24.957Z,59.20
2022-12-18T14:14:55.607Z,53.35
2022-12-18T14:17:25.255Z,51.22
2022-12-18T14:19:53.961Z,48.83
2022-12-18T14:22:28.746Z,49.80
2022-12-18T14:25:16.137Z,48.80
2022-12-18T14:27:46.050Z,56.50
2022-12-18T14:30:29.562Z,54.03
2022-12-18T14:33:05.657Z,49.35
2022-12-18T14:35:34.140Z,52.53
2022-12-18T14:38:27.058Z,59.33
2022-12-18T14:40:56.787Z,55.85
2022-12-18T14:43:25.007Z,62.05
2022-12-18T14:45:54.840Z,62.10
2022-12-18T14:48:26.917Z,53.85
2022-12-18T14:51:00.601Z,69.05
2022-12-18T14:53:37.284Z,62.85
2022-12-18T14:56:13.140Z,64.57
2022-12-18T14:58:41.428Z,70.28
2022-12-18T15:01:10.815Z,74.30
2022-12-18T15:03:45.863Z,74.53
2022-12-18T15:06:19.722Z,75.78
2022-12-18T15:08:47.711Z,81.32
2022-12-18T15:11:30.736Z,81.57
2022-12-18T15:14:01.228Z,85.80
2022-12-18T15:16:31.278Z,81.13
2022-12-18T15:18:59.328Z,77.45
2022-12-18T15:21:31.621Z,75.57
2022-12-18T15:24:01.032Z,79.97
2022-12-18T15:26:39.685Z,88.75
2022-12-18T15:29:11.379Z,86.28
2022-12-18T15:31:44.949Z,92.75
2022-12-18T15:34:21.574Z,106.70
2022-12-18T15:36:49.681Z,94.57
2022-12-18T15:39:17.706Z,97.70
2022-12-18T15:42:05.873Z,102.53
2022-12-18T15:44:32.954Z,102.05
2022-12-18T15:47:02.342Z,96.53
2022-12-18T15:49:30.324Z,88.18
2022-12-18T15:52:00.851Z,88.68
2022-12-18T15:54:46.594Z,91.90
2022-12-18T15:57:27.603Z,79.70
2022-12-18T15:59:58.989Z,82.78
2022-12-18T16:02:29.495Z,81.82
2022-12-18T16:04:58.238Z,88.00
2022-12-18T16:07:29.134Z,82.63
2022-12-18T16:09:59.052Z,80.15
2022-12-18T16:12:29.135Z,89.80
2022-12-18T16:15:03.050Z,77.55
2022-12-18T16:20:00.912Z,89.80
2022-12-18T16:22:30.934Z,89.50
2022-12-18T16:25:00.128Z,83.15
2022-12-18T16:27:28.305Z,90.15
2022-12-18T16:29:56.363Z,86.63
2022-12-18T16:32:24.865Z,98.88
2022-12-18T16:34:54.209Z,107.13
2022-12-18T16:37:22.156Z,111.43
2022-12-18T16:39:50.078Z,124.35
2022-12-18T16:42:21.182Z,113.95
2022-12-18T16:44:50.531Z,125.10
2022-12-18T16:47:19.212Z,110.35
2022-12-18T16:49:47.300Z,119.65
2022-12-18T16:52:16.686Z,86.47
2022-12-18T16:54:46.191Z,78.05
2022-12-18T16:57:16.098Z,86.40
2022-12-18T16:59:44.412Z,97.32
2022-12-18T17:02:17.205Z,95.35
2022-12-18T17:04:47.847Z,95.22
2022-12-18T17:07:17.562Z,93.00
2022-12-18T17:09:45.556Z,78.50
2022-12-18T17:12:13.688Z,90.28
2022-12-18T17:14:41.729Z,93.60
2022-12-18T17:17:25.139Z,91.15
2022-12-18T17:19:53.702Z,82.03
2022-12-18T17:22:24.276Z,100.82
2022-12-18T17:24:52.343Z,102.13
2022-12-18T17:27:20.407Z,91.90
2022-12-18T17:29:49.129Z,83.63
2022-12-18T17:32:17.448Z,79.22
2022-12-18T17:34:45.406Z,95.80
2022-12-18T17:37:13.403Z,82.70
2022-12-18T17:39:43.166Z,89.70
2022-12-18T17:42:14.852Z,95.40
2022-12-18T17:44:43.680Z,75.47
2022-12-18T17:47:13.086Z,91.90
2022-12-18T17:49:41.262Z,90.43
2022-12-18T17:52:09.392Z,98.30
2022-12-18T17:54:39.959Z,94.82
2022-12-18T17:57:09.583Z,93.63
2022-12-18T17:59:37.641Z,90.82
2022-12-18T18:02:05.832Z,84.65
2022-12-18T18:04:34.454Z,88.30
2022-12-18T18:07:02.436Z,78.22
2022-12-18T18:09:30.420Z,85.85
2022-12-18T18:12:15.760Z,89.22
2022-12-18T18:14:45.268Z,79.43
2022-12-18T18:17:13.206Z,85.03
2022-12-18T18:19:42.179Z,83.38
2022-12-18T18:22:12.278Z,75.05
2022-12-18T18:24:43.544Z,90.43
2022-12-18T18:27:11.597Z,82.10
2022-12-18T18:29:40.171Z,74.70
2022-12-18T18:32:09.583Z,85.35
2022-12-18T18:34:37.714Z,79.32
2022-12-18T18:37:06.021Z,82.07
2022-12-18T18:39:34.056Z,78.70
2022-12-18T18:42:02.034Z,76.18
2022-12-18T18:44:30.485Z,84.95
2022-12-18T18:47:00.102Z,83.28
2022-12-18T18:49:31.908Z,97.75
2022-12-18T18:52:00.433Z,85.38
2022-12-18T18:54:29.478Z,90.38
2022-12-18T18:57:19.868Z,77.03
2022-12-18T18:59:47.193Z,92.72
2022-12-18T19:02:16.614Z,90.47
2022-12-18T19:04:47.022Z,83.90
2022-12-18T19:07:28.113Z,90.13
2022-12-18T19:09:58.131Z,80.18
2022-12-18T19:12:49.174Z,80.85
2022-12-18T19:15:17.099Z,99.80
2022-12-18T19:17:47.410Z,87.72
2022-12-18T19:20:17.555Z,79.22
2022-12-18T19:22:47.979Z,79.90
2022-12-18T19:25:26.818Z,90.57
2022-12-18T19:28:12.059Z,83.93
2022-12-18T19:30:54.512Z,79.82
2022-12-18T19:33:42.442Z,79.68
2022-12-18T19:36:19.360Z,92.28
2022-12-18T19:38:47.423Z,92.95
2022-12-18T19:41:16.290Z,102.45
2022-12-18T19:43:44.789Z,82.93
2022-12-18T19:46:15.516Z,86.13
2022-12-18T19:48:44.440Z,92.43
2022-12-18T19:51:16.991Z,90.78
2022-12-18T19:53:45.469Z,95.22
2022-12-18T19:56:15.765Z,101.65
2022-12-18T19:58:44.796Z,87.05
2022-12-18T20:01:13.744Z,111.95
2022-12-18T20:03:49.133Z,98.97
2022-12-18T20:06:26.703Z,104.88
2022-12-18T20:11:28.385Z,115.47
2022-12-18T20:13:56.343Z,112.50
2022-12-18T20:16:24.587Z,115.30
2022-12-18T20:18:52.615Z,118.10
2022-12-18T20:21:22.373Z,113.68
2022-12-18T20:23:50.344Z,132.75
2022-12-18T20:26:18.425Z,120.03
2022-12-18T20:28:46.525Z,118.47
2022-12-18T20:31:14.830Z,117.20
2022-12-18T20:33:46.327Z,118.45
2022-12-18T20:38:51.018Z,114.75
2022-12-18T20:41:21.451Z,114.82
2022-12-18T20:43:49.802Z,98.85
2022-12-18T20:46:18.746Z,97.80
2022-12-18T20:48:47.815Z,98.88
2022-12-18T20:51:17.991Z,106.32
2022-12-18T20:53:46.977Z,105.18
2022-12-18T20:56:21.184Z,107.53
2022-12-18T20:58:50.551Z,101.47
2022-12-18T21:01:24.812Z,110.50
2022-12-18T21:03:53.312Z,117.70
2022-12-18T21:06:22.878Z,115.80
2022-12-18T21:08:50.911Z,101.75
2022-12-18T21:11:42.819Z,114.57
2022-12-18T21:14:13.082Z,117.80
2022-12-18T21:16:43.011Z,111.15
2022-12-18T21:19:11.634Z,111.07
2022-12-18T21:21:39.944Z,116.03
2022-12-18T21:24:09.735Z,109.82
2022-12-18T21:26:45.438Z,112.18
2022-12-18T21:29:15.866Z,105.82
2022-12-18T21:31:45.460Z,119.75
2022-12-18T21:34:17.780Z,104.47
2022-12-18T21:36:46.263Z,104.75
2022-12-18T21:39:15.962Z,99.80
2022-12-18T21:42:03.754Z,108.35
2022-12-18T21:44:35.701Z,102.28
2022-12-18T21:47:21.487Z,112.07
2022-12-18T21:49:52.044Z,100.35
2022-12-18T21:52:21.574Z,92.85
2022-12-18T21:54:55.837Z,117.97
2022-12-18T21:57:25.250Z,108.95
2022-12-18T21:59:54.723Z,110.10
2022-12-18T22:02:26.130Z,114.03
2022-12-18T22:04:54.193Z,100.28
2022-12-18T22:07:22.639Z,109.63
2022-12-18T22:09:51.180Z,116.28
2022-12-18T22:12:35.829Z,118.25
2022-12-18T22:15:21.818Z,104.90
2022-12-18T22:17:56.931Z,100.63
2022-12-18T22:20:29.512Z,96.60
2022-12-18T22:22:58.269Z,106.72
2022-12-18T22:25:26.227Z,99.60
2022-12-18T22:28:08.052Z,97.93
2022-12-18T22:30:37.456Z,92.05
2022-12-18T22:33:05.539Z,91.25
2022-12-18T22:35:33.416Z,93.10
2022-12-18T22:38:02.677Z,96.20
2022-12-18T22:40:31.312Z,94.88
2022-12-18T22:42:59.399Z,93.05
2022-12-18T22:45:27.967Z,99.57
2022-12-18T22:47:57.388Z,92.47
2022-12-18T22:50:25.311Z,95.72
2022-12-18T22:52:53.277Z,81.57
2022-12-18T22:55:21.258Z,68.75
2022-12-18T22:57:50.453Z,73.60
2022-12-18T23:00:24.157Z,78.50
2022-12-18T23:02:59.218Z,95.50
2022-12-18T23:05:30.603Z,73.78
2022-12-18T23:07:59.574Z,96.38
2022-12-18T23:10:28.611Z,97.10
2022-12-18T23:12:56.587Z,89.97
2022-12-18T23:15:27.731Z,100.57
2022-12-18T23:17:57.367Z,107.28
2022-12-18T23:20:25.986Z,95.75
2022-12-18T23:22:55.441Z,82.70
2022-12-18T23:25:23.679Z,88.78
2022-12-18T23:27:51.823Z,81.78
2022-12-18T23:30:20.290Z,84.10
2022-12-18T23:32:48.423Z,90.53
2022-12-18T23:35:16.472Z,88.60
2022-12-18T23:38:00.726Z,100.88
2022-12-18T23:40:31.122Z,110.30
2022-12-18T23:43:00.320Z,105.15
2022-12-18T23:45:28.275Z,94.97
2022-12-18T23:47:56.238Z,110.70
2022-12-18T23:50:29.408Z,114.10
2022-12-18T23:55:39.852Z,106.80
2022-12-18T23:58:08.735Z,97.95
